Terminal Aerodrome Forecast
Issued by NWS

Home | Current Version | Previous Version | Text Only | Print | Product List | Glossary On
Versions: 1 2 3 4 5 6 7 8 9 10 11 12 13 14 15 16 17 18 19 20 21 22
000
FTUS43 KMQT 310213 AAA
TAFIWD
TAF AMD
KIWD 310213Z 3102/3124 VRB03KT P6SM SKC
      TEMPO 3102/3106 2SM BR
     FM310600 VRB03KT 2SM BR SKC
     FM311500 35007KT P6SM SCT060
      AMD LTD TO CLD VIS AND WIND=

USA.gov is the U.S. government's official web portal to all federal, state and local government web resources and services.